Flag for USA

Past Weather in 27°56'33.4"N, 82°26'43.9"W, USA — Yesterday and Last 2 Weeks

Currently: 93 °F. Rain. Overcast. (Weather station: Tampa, Peter O Knight Airport, USA). See more current weather

Past Weather in 27°56'33.4"N, 82°26'43.9"W — Graph

°F

27°56'33.4"N, 82°26'43.9"W Temperature Yesterday

Maximum temperature yesterday: 95 °F (at 3:15 pm)
Minimum temperature yesterday: 72 °F (at 6:35 am)
Average temperature yesterday: 83 °F

High & Low Weather Summary for the Past Weeks

 TemperatureHumidityPressure
High97 °F (May 23, 3:35 pm)89% (May 13, 7:15 am)30.04 "Hg (May 13, 7:15 am)
Low70 °F (May 12, 5:15 am)23% (May 23, 3:35 pm)29.81 "Hg (May 10, 6:35 pm)
Average82 °F62%29.92 "Hg
* Reported May 10 2:15 pm — May 25 2:15 pm, 27°56'33.4"N, 82°26'43.9"W. Weather by CustomWeather, © 2024

Note: Actual official high and low records may vary slightly from our data, if they occured in-between our weather recording intervals... More about our weather records

27°56'33.4"N, 82°26'43.9"W Weather History for the Previous 24 Hours

Scroll right to see more
 ConditionsComfort  
Time TempWeatherWind HumidityBarometerVisibility
2:15 pm
Sat, May 25
95 °FScattered clouds.6 mph36%29.94 "Hg5 mi
1:55 pm95 °FSunny.8 mph32%29.95 "Hg5 mi
1:35 pm93 °FSunny.6 mph36%29.96 "Hg7 mi
1:15 pm95 °FScattered clouds.8 mph36%29.96 "Hg5 mi
12:55 pm91 °FScattered clouds.5 mph36%29.97 "Hg5 mi
12:35 pm91 °FScattered clouds.No wind36%29.97 "Hg7 mi
12:15 pm91 °FSunny.5 mph36%29.97 "Hg7 mi
11:55 am91 °FSunny.6 mph34%29.97 "Hg5 mi
11:35 am91 °FSunny.6 mph36%29.97 "Hg5 mi
11:15 am90 °FSunny.7 mph41%29.97 "Hg5 mi
10:55 am90 °FSunny.No wind49%29.96 "Hg7 mi
10:35 am88 °FSunny.5 mph49%29.96 "Hg5 mi
10:15 am88 °FRain. Sunny.No wind46%29.96 "Hg7 mi
9:35 am84 °FRain. Sunny.3 mph58%29.96 "Hg7 mi
9:15 am84 °FRain. Sunny.3 mph58%29.96 "Hg7 mi
8:35 am81 °FRain. Sunny.No wind62%29.95 "Hg7 mi
8:15 am81 °FLight rain. Sunny.No wind62%29.95 "Hg5 mi
7:35 am79 °FSunny.No wind70%29.95 "Hg5 mi
7:15 am77 °FSunny.No wind69%29.93 "Hg5 mi
6:55 am77 °FScattered clouds.No wind69%29.93 "Hg5 mi
6:35 am77 °FOvercast.No wind65%29.93 "Hg5 mi
6:15 am77 °FOvercast.No wind65%29.93 "Hg7 mi
5:55 am79 °FOvercast.No wind61%29.94 "Hg7 mi
5:35 am79 °FOvercast.No wind61%29.93 "Hg7 mi
5:15 am79 °FOvercast.No wind61%29.93 "Hg7 mi
4:35 am79 °FPartly cloudy.No wind61%29.92 "Hg7 mi
4:15 am79 °FPartly cloudy.No wind61%29.92 "Hg7 mi
3:35 am81 °FOvercast.6 mph58%29.92 "Hg7 mi
3:15 am79 °FMostly cloudy.5 mph70%29.92 "Hg7 mi
2:55 am79 °FPassing clouds.3 mph74%29.93 "Hg7 mi
2:35 am79 °FPassing clouds.No wind79%29.93 "Hg7 mi
2:15 am81 °FMostly cloudy.No wind74%29.93 "Hg7 mi
1:55 am81 °FMostly cloudy.5 mph74%29.93 "Hg7 mi
1:35 am81 °FPartly cloudy.5 mph74%29.94 "Hg7 mi
1:15 am81 °FPassing clouds.6 mph74%29.94 "Hg7 mi
12:55 am81 °FPartly cloudy.6 mph74%29.95 "Hg7 mi
12:35 am81 °FPassing clouds.9 mph74%29.95 "Hg7 mi
12:15 am81 °FPassing clouds.8 mph74%29.95 "Hg10 mi
11:55 pm
Fri, May 24
81 °FClear.No wind74%29.94 "Hg7 mi
11:35 pm81 °FPassing clouds.No wind74%29.94 "Hg7 mi
11:15 pm81 °FPassing clouds.No wind70%29.95 "Hg7 mi
10:55 pm81 °FClear.No wind74%29.95 "Hg7 mi
10:35 pm81 °FPassing clouds.3 mph70%29.95 "Hg7 mi
9:55 pm82 °FPassing clouds.3 mph66%29.94 "Hg7 mi
9:35 pm82 °FPassing clouds.5 mph66%29.94 "Hg10 mi
9:15 pm82 °FClear.No wind66%29.94 "Hg10 mi
8:55 pm82 °FClear.6 mph66%29.93 "Hg10 mi
8:35 pm82 °FClear.3 mph66%29.92 "Hg7 mi
7:55 pm84 °FSunny.6 mph62%29.91 "Hg5 mi
7:35 pm86 °FRain. Sunny.6 mph55%29.91 "Hg7 mi
7:15 pm88 °FLight rain. Sunny.7 mph52%29.91 "Hg5 mi
6:55 pm88 °FRain. Sunny.8 mph55%29.90 "Hg7 mi
6:35 pm90 °FRain. Sunny.8 mph52%29.90 "Hg7 mi
6:15 pm90 °FLight rain. Scattered clouds.7 mph49%29.90 "Hg7 mi
5:55 pm90 °FRain. Partly sunny.8 mph49%29.90 "Hg7 mi
5:35 pm91 °FRain. More clouds than sun.10 mph46%29.91 "Hg5 mi
5:15 pm91 °FRain. More clouds than sun.10 mph44%29.91 "Hg7 mi
4:35 pm95 °FOvercast.9 mph36%29.91 "Hg5 mi
4:15 pm95 °FMostly cloudy.5 mph32%29.91 "Hg7 mi
3:35 pm95 °FCloudy.7 mph32%29.92 "Hg4 mi
3:15 pm95 °FOvercast.7 mph34%29.93 "Hg7 mi
Weather by CustomWeather, © 2024

See weather overview